createdAt,value
2018-08-30T00:00:33.394Z,19.13
2018-08-30T00:03:02.011Z,19.12
2018-08-30T00:05:30.731Z,19.09
2018-08-30T00:07:59.325Z,19.09
2018-08-30T00:10:28.039Z,19.08
2018-08-30T00:12:57.646Z,19.04
2018-08-30T00:15:26.351Z,18.99
2018-08-30T00:17:55.051Z,18.91
2018-08-30T00:20:23.764Z,19.04
2018-08-30T00:22:52.466Z,18.87
2018-08-30T00:25:21.184Z,18.79
2018-08-30T00:27:49.888Z,18.78
2018-08-30T00:30:18.599Z,18.70
2018-08-30T00:32:47.465Z,18.62
2018-08-30T00:35:16.231Z,18.56
2018-08-30T00:37:45.056Z,18.53
2018-08-30T00:40:13.796Z,18.59
2018-08-30T00:42:42.533Z,18.63
2018-08-30T00:45:11.416Z,18.59
2018-08-30T00:47:44.665Z,18.46
2018-08-30T00:50:13.496Z,18.39
2018-08-30T00:52:42.299Z,18.29
2018-08-30T00:55:11.834Z,18.19
2018-08-30T00:57:40.536Z,18.09
2018-08-30T01:00:09.501Z,18.05
2018-08-30T01:02:38.135Z,18.06
2018-08-30T01:05:07.171Z,18.13
2018-08-30T01:07:35.876Z,18.21
2018-08-30T01:10:04.941Z,18.26
2018-08-30T01:12:36.810Z,18.21
2018-08-30T01:15:05.933Z,18.10
2018-08-30T01:17:34.796Z,18.04
2018-08-30T01:20:03.589Z,18.49
2018-08-30T01:22:32.344Z,18.40
2018-08-30T01:25:01.103Z,18.33
2018-08-30T01:27:29.817Z,18.34
2018-08-30T01:29:58.492Z,18.33
2018-08-30T01:32:27.111Z,18.33
2018-08-30T01:34:55.772Z,18.35
2018-08-30T01:37:24.395Z,18.38
2018-08-30T01:39:53.171Z,18.41
2018-08-30T01:42:22.193Z,18.48
2018-08-30T01:44:51.118Z,18.47
2018-08-30T01:47:20.076Z,18.36
2018-08-30T01:49:48.776Z,18.32
2018-08-30T01:52:17.450Z,18.29
2018-08-30T01:54:46.153Z,18.46
2018-08-30T01:57:14.853Z,18.47
2018-08-30T01:59:43.450Z,18.42
2018-08-30T02:02:12.072Z,18.42
2018-08-30T02:04:40.758Z,18.39
2018-08-30T02:07:10.925Z,18.37
2018-08-30T02:09:39.519Z,18.39
2018-08-30T02:12:08.179Z,18.35
2018-08-30T02:14:36.785Z,18.33
2018-08-30T02:17:05.813Z,18.28
2018-08-30T02:19:34.479Z,18.20
2018-08-30T02:22:03.083Z,18.17
2018-08-30T02:24:31.698Z,18.19
2018-08-30T02:27:00.342Z,18.21
2018-08-30T02:29:29.069Z,18.27
2018-08-30T02:31:57.793Z,18.26
2018-08-30T02:34:26.506Z,18.30
2018-08-30T02:36:55.184Z,18.33
2018-08-30T02:39:23.904Z,18.42
2018-08-30T02:41:52.614Z,18.43
2018-08-30T02:44:21.311Z,18.47
2018-08-30T02:46:50.035Z,18.56
2018-08-30T02:49:18.789Z,18.59
2018-08-30T02:51:47.469Z,18.60
2018-08-30T02:54:16.182Z,18.66
2018-08-30T02:56:44.886Z,18.71
2018-08-30T02:59:13.758Z,18.55
2018-08-30T03:01:42.454Z,18.36
2018-08-30T03:04:11.143Z,18.18
2018-08-30T03:06:39.886Z,18.07
2018-08-30T03:09:09.546Z,18.16
2018-08-30T03:11:38.283Z,18.25
2018-08-30T03:14:07.062Z,18.23
2018-08-30T03:16:35.873Z,18.24
2018-08-30T03:19:04.613Z,18.20
2018-08-30T03:21:33.241Z,18.21
2018-08-30T03:24:01.853Z,18.17
2018-08-30T03:26:30.443Z,18.15
2018-08-30T03:28:59.133Z,18.11
2018-08-30T03:31:27.791Z,18.09
2018-08-30T03:33:56.434Z,18.09
2018-08-30T03:36:25.106Z,18.10
2018-08-30T03:38:53.701Z,18.14
2018-08-30T03:41:22.315Z,18.17
2018-08-30T03:43:50.925Z,18.18
2018-08-30T03:46:19.577Z,18.22
2018-08-30T03:48:48.323Z,18.33
2018-08-30T03:51:17.076Z,18.40
2018-08-30T03:53:45.856Z,18.51
2018-08-30T03:56:14.606Z,18.45
2018-08-30T03:58:44.291Z,18.42
2018-08-30T04:01:13.099Z,18.32
2018-08-30T04:03:41.808Z,18.25
2018-08-30T04:06:10.531Z,18.28
2018-08-30T04:08:39.238Z,18.31
2018-08-30T04:11:07.924Z,18.22
2018-08-30T04:13:36.674Z,18.11
2018-08-30T04:16:05.374Z,18.05
2018-08-30T04:18:34.081Z,17.97
2018-08-30T04:21:02.798Z,17.90
2018-08-30T04:23:31.509Z,17.82
2018-08-30T04:26:00.298Z,17.76
2018-08-30T04:28:29.008Z,17.74
2018-08-30T04:30:57.859Z,17.77
2018-08-30T04:33:26.598Z,17.80
2018-08-30T04:35:55.387Z,17.78
2018-08-30T04:38:24.147Z,17.77
2018-08-30T04:40:52.883Z,17.74
2018-08-30T04:43:21.663Z,17.86
2018-08-30T04:45:50.403Z,17.89
2018-08-30T04:48:19.141Z,17.88
2018-08-30T04:50:47.911Z,17.92
2018-08-30T04:53:16.658Z,17.91
2018-08-30T04:55:45.411Z,17.97
2018-08-30T04:58:14.140Z,18.03
2018-08-30T05:00:42.885Z,18.05
2018-08-30T05:03:11.591Z,18.12
2018-08-30T05:05:40.303Z,18.22
2018-08-30T05:08:08.955Z,18.40
2018-08-30T05:10:37.750Z,18.60
2018-08-30T05:13:06.366Z,18.78
2018-08-30T05:15:35.004Z,18.98
2018-08-30T05:18:03.719Z,19.08
2018-08-30T05:20:32.506Z,19.34
2018-08-30T05:23:01.256Z,19.38
2018-08-30T05:25:29.969Z,19.41
2018-08-30T05:27:58.763Z,19.37
2018-08-30T05:30:27.558Z,19.28
2018-08-30T05:32:56.281Z,19.25
2018-08-30T05:35:25.029Z,19.32
2018-08-30T05:37:53.739Z,19.04
2018-08-30T05:40:22.533Z,18.86
2018-08-30T05:42:51.293Z,18.70
2018-08-30T05:45:20.177Z,18.64
2018-08-30T05:47:49.046Z,18.72
2018-08-30T05:50:17.803Z,18.96
2018-08-30T05:52:46.607Z,19.13
2018-08-30T05:55:15.359Z,19.41
2018-08-30T05:57:44.147Z,19.70
2018-08-30T06:00:12.932Z,20.06
2018-08-30T06:02:41.679Z,20.33
2018-08-30T06:05:10.449Z,20.61
2018-08-30T06:07:39.179Z,20.86
2018-08-30T06:10:07.987Z,21.24
2018-08-30T06:12:36.744Z,21.44
2018-08-30T06:15:05.551Z,21.60
2018-08-30T06:17:34.308Z,21.51
2018-08-30T06:20:03.038Z,21.71
2018-08-30T06:22:31.713Z,22.07
2018-08-30T06:25:00.406Z,21.91
2018-08-30T06:27:29.058Z,22.10
2018-08-30T06:29:57.745Z,22.04
2018-08-30T06:32:26.538Z,21.46
2018-08-30T06:34:55.233Z,21.30
2018-08-30T06:37:24.410Z,21.41
2018-08-30T06:39:53.586Z,21.30
2018-08-30T06:42:22.421Z,21.33
2018-08-30T06:44:51.347Z,21.27
2018-08-30T06:47:20.073Z,21.66
2018-08-30T06:49:48.738Z,22.24
2018-08-30T06:52:17.528Z,22.54
2018-08-30T06:54:46.227Z,22.78
2018-08-30T06:57:14.814Z,23.29
2018-08-30T06:59:43.515Z,23.37
2018-08-30T07:02:12.199Z,23.60
2018-08-30T07:04:40.891Z,24.01
2018-08-30T07:07:10.525Z,24.21
2018-08-30T07:09:39.334Z,24.67
2018-08-30T07:12:08.536Z,24.88
2018-08-30T07:14:37.437Z,25.11
2018-08-30T07:17:06.219Z,24.97
2018-08-30T07:19:35.031Z,25.19
2018-08-30T07:22:03.917Z,25.37
2018-08-30T07:24:32.683Z,25.59
2018-08-30T07:27:01.371Z,25.71
2018-08-30T07:29:30.096Z,25.98
2018-08-30T07:31:59.504Z,26.13
2018-08-30T07:34:28.188Z,25.75
2018-08-30T07:36:56.819Z,25.88
2018-08-30T07:39:25.480Z,26.51
2018-08-30T07:41:54.120Z,26.36
2018-08-30T07:44:23.054Z,26.56
2018-08-30T07:46:51.692Z,27.01
2018-08-30T07:49:20.309Z,27.38
2018-08-30T07:51:49.042Z,27.36
2018-08-30T07:54:17.706Z,27.47
2018-08-30T07:56:46.411Z,27.63
2018-08-30T07:59:15.152Z,28.21
2018-08-30T08:01:43.859Z,28.00
2018-08-30T08:04:12.619Z,28.00
2018-08-30T08:06:41.238Z,28.25
2018-08-30T08:09:10.266Z,28.50
2018-08-30T08:11:38.908Z,28.33
2018-08-30T08:14:07.836Z,28.06
2018-08-30T08:16:36.451Z,28.36
2018-08-30T08:19:05.141Z,28.28
2018-08-30T08:21:33.731Z,28.49
2018-08-30T08:24:02.381Z,28.60
2018-08-30T08:26:31.055Z,28.91
2018-08-30T08:28:59.692Z,28.78
2018-08-30T08:31:28.361Z,29.43
2018-08-30T08:33:56.973Z,29.20
2018-08-30T08:36:25.779Z,29.17
2018-08-30T08:38:54.621Z,29.72
2018-08-30T08:41:23.371Z,30.17
2018-08-30T08:43:52.247Z,30.19
2018-08-30T08:46:20.973Z,30.10
2018-08-30T08:48:49.799Z,29.88
2018-08-30T08:51:18.556Z,29.75
2018-08-30T08:53:47.384Z,30.07
2018-08-30T08:56:16.241Z,30.45
2018-08-30T08:58:45.121Z,30.45
2018-08-30T09:01:13.811Z,30.28
2018-08-30T09:03:42.613Z,30.32
2018-08-30T09:06:11.456Z,30.84
2018-08-30T09:08:40.598Z,30.97
2018-08-30T09:11:09.356Z,31.45
2018-08-30T09:13:38.118Z,31.45
2018-08-30T09:16:06.931Z,31.60
2018-08-30T09:18:35.655Z,31.03
2018-08-30T09:21:05.559Z,30.61
2018-08-30T09:23:34.279Z,30.90
2018-08-30T09:26:03.032Z,30.58
2018-08-30T09:28:32.883Z,31.16
2018-08-30T09:31:01.739Z,31.20
2018-08-30T09:33:30.436Z,31.84
2018-08-30T09:35:59.193Z,31.92
2018-08-30T09:38:27.957Z,32.19
2018-08-30T09:40:56.746Z,31.89
2018-08-30T09:43:25.361Z,31.57
2018-08-30T09:45:54.533Z,30.82
2018-08-30T09:48:23.191Z,31.02
2018-08-30T09:50:51.920Z,30.46
2018-08-30T09:53:20.612Z,30.13
2018-08-30T09:55:49.290Z,30.74
2018-08-30T09:58:18.073Z,30.55
2018-08-30T10:00:52.555Z,30.63
2018-08-30T10:03:21.301Z,30.33
2018-08-30T10:05:49.993Z,31.08
2018-08-30T10:08:18.675Z,31.24
2018-08-30T10:10:47.393Z,31.24
2018-08-30T10:13:16.029Z,30.80
2018-08-30T10:15:44.688Z,31.31
2018-08-30T10:18:13.423Z,31.12
2018-08-30T10:20:42.110Z,30.94
2018-08-30T10:23:10.838Z,30.90
2018-08-30T10:25:39.635Z,30.93
2018-08-30T10:28:08.328Z,30.81
2018-08-30T10:30:37.020Z,30.72
2018-08-30T10:33:05.846Z,30.92
2018-08-30T10:35:34.711Z,30.79
2018-08-30T10:38:03.378Z,30.51
2018-08-30T10:40:32.028Z,30.24
2018-08-30T10:43:00.693Z,31.09
2018-08-30T10:45:29.429Z,32.01
2018-08-30T10:47:58.141Z,32.81
2018-08-30T10:50:26.941Z,32.97
2018-08-30T10:52:56.177Z,32.74
2018-08-30T10:55:25.040Z,32.84
2018-08-30T10:57:55.021Z,33.75
2018-08-30T11:00:24.293Z,34.17
2018-08-30T11:02:52.941Z,34.21
2018-08-30T11:05:21.708Z,33.73
2018-08-30T11:07:50.494Z,33.88
2018-08-30T11:10:19.564Z,33.60
2018-08-30T11:12:48.453Z,33.32
2018-08-30T11:15:17.984Z,33.59
2018-08-30T11:17:46.929Z,34.05
2018-08-30T11:20:15.686Z,32.81
2018-08-30T11:22:44.391Z,31.86
2018-08-30T11:25:13.482Z,32.35
2018-08-30T11:27:42.272Z,32.99
2018-08-30T11:30:11.159Z,32.98
2018-08-30T11:32:40.094Z,32.90
2018-08-30T11:35:08.838Z,33.00
2018-08-30T11:37:37.657Z,33.10
2018-08-30T11:40:06.564Z,34.18
2018-08-30T11:42:35.406Z,34.60
2018-08-30T11:45:04.368Z,34.92
2018-08-30T11:47:34.858Z,33.85
2018-08-30T11:50:04.408Z,33.59
2018-08-30T11:52:33.230Z,33.22
2018-08-30T11:55:02.734Z,33.35
2018-08-30T11:57:31.533Z,33.97
2018-08-30T12:00:00.307Z,33.93
2018-08-30T12:02:30.078Z,35.00
2018-08-30T12:04:58.924Z,35.08
2018-08-30T12:07:27.891Z,35.04
2018-08-30T12:09:56.846Z,34.44
2018-08-30T12:12:25.544Z,34.95
2018-08-30T12:14:54.439Z,35.70
2018-08-30T12:17:23.231Z,35.31
2018-08-30T12:19:52.150Z,35.17
2018-08-30T12:22:22.013Z,35.35
2018-08-30T12:24:52.249Z,35.16
2018-08-30T12:27:21.979Z,35.44
2018-08-30T12:29:51.204Z,35.37
2018-08-30T12:32:20.035Z,35.37
2018-08-30T12:34:48.893Z,35.26
2018-08-30T12:37:17.882Z,35.39
2018-08-30T12:39:46.925Z,35.06
2018-08-30T12:42:15.698Z,35.36
2018-08-30T12:44:44.539Z,35.59
2018-08-30T12:47:14.576Z,35.77
2018-08-30T12:49:43.356Z,36.04
2018-08-30T12:52:13.311Z,35.80
2018-08-30T12:54:42.060Z,35.63
2018-08-30T12:57:10.859Z,35.58
2018-08-30T12:59:40.854Z,34.78
2018-08-30T13:02:09.920Z,33.42
2018-08-30T13:04:38.942Z,33.28
2018-08-30T13:07:07.832Z,33.33
2018-08-30T13:09:36.761Z,33.26
2018-08-30T13:12:06.146Z,34.14
2018-08-30T13:14:34.835Z,34.65
2018-08-30T13:17:03.534Z,34.97
2018-08-30T13:19:32.543Z,34.93
2018-08-30T13:22:01.354Z,35.21
2018-08-30T13:24:30.231Z,35.30
2018-08-30T13:27:00.575Z,36.24
2018-08-30T13:29:29.274Z,36.13
2018-08-30T13:31:58.332Z,35.77
2018-08-30T13:34:26.958Z,34.68
2018-08-30T13:36:55.683Z,34.15
2018-08-30T13:39:24.381Z,33.52
2018-08-30T13:41:54.048Z,33.20
2018-08-30T13:44:22.781Z,34.46
2018-08-30T13:46:52.253Z,35.27
2018-08-30T13:49:20.762Z,35.72
2018-08-30T13:51:49.706Z,36.25
2018-08-30T13:54:18.516Z,35.61
2018-08-30T13:56:47.363Z,36.28
2018-08-30T13:59:16.356Z,36.45
2018-08-30T14:01:47.015Z,36.62
2018-08-30T14:04:15.591Z,36.23
2018-08-30T14:06:44.586Z,34.68
2018-08-30T14:09:13.253Z,34.10
2018-08-30T14:11:42.811Z,34.65
2018-08-30T14:14:11.370Z,35.10
2018-08-30T14:16:40.794Z,34.90
2018-08-30T14:19:09.781Z,35.11
2018-08-30T14:21:39.919Z,35.33
2018-08-30T14:24:08.710Z,34.78
2018-08-30T14:26:37.618Z,34.67
2018-08-30T14:29:07.637Z,34.61
2018-08-30T14:31:36.372Z,34.35
2018-08-30T14:34:06.331Z,34.05
2018-08-30T14:36:35.801Z,33.97
2018-08-30T14:39:06.293Z,34.26
2018-08-30T14:41:35.609Z,34.47
2018-08-30T14:44:04.371Z,34.47
2018-08-30T14:46:33.080Z,34.56
2018-08-30T14:49:01.896Z,34.15
2018-08-30T14:51:31.828Z,34.22
2018-08-30T14:54:00.547Z,34.63
2018-08-30T14:56:29.226Z,35.15
2018-08-30T14:58:58.084Z,35.51
2018-08-30T15:01:26.878Z,34.96
2018-08-30T15:03:55.750Z,35.12
2018-08-30T15:06:24.607Z,34.29
2018-08-30T15:08:53.976Z,34.96
2018-08-30T15:11:23.191Z,34.77
2018-08-30T15:13:51.938Z,34.79
2018-08-30T15:16:20.742Z,34.72
2018-08-30T15:18:49.564Z,34.54
2018-08-30T15:21:18.185Z,34.67
2018-08-30T15:23:46.856Z,34.22
2018-08-30T15:26:15.536Z,34.41
2018-08-30T15:28:44.229Z,34.17
2018-08-30T15:31:13.152Z,33.69
2018-08-30T15:33:42.116Z,33.19
2018-08-30T15:36:10.853Z,32.51
2018-08-30T15:38:39.850Z,32.47
2018-08-30T15:41:09.248Z,32.35
2018-08-30T15:43:38.429Z,32.43
2018-08-30T15:46:07.378Z,32.17
2018-08-30T15:48:36.499Z,32.24
2018-08-30T15:51:05.664Z,32.13
2018-08-30T15:53:34.704Z,32.14
2018-08-30T15:56:04.075Z,32.36
2018-08-30T15:58:33.003Z,32.54
2018-08-30T16:01:01.940Z,32.25
2018-08-30T16:03:31.402Z,32.13
2018-08-30T16:06:00.437Z,32.27
2018-08-30T16:08:29.345Z,31.78
2018-08-30T16:10:58.101Z,31.59
2018-08-30T16:13:26.866Z,31.86
2018-08-30T16:15:55.712Z,31.60
2018-08-30T16:18:24.588Z,31.02
2018-08-30T16:20:53.522Z,30.65
2018-08-30T16:23:27.787Z,30.23
2018-08-30T16:25:56.603Z,30.03
2018-08-30T16:28:26.579Z,29.75
2018-08-30T16:30:55.536Z,29.50
2018-08-30T16:33:24.106Z,29.42
2018-08-30T16:35:53.062Z,29.39
2018-08-30T16:38:22.427Z,29.19
2018-08-30T16:40:51.346Z,29.20
2018-08-30T16:43:20.127Z,29.03
2018-08-30T16:45:48.890Z,28.99
2018-08-30T16:48:17.663Z,28.94
2018-08-30T16:50:46.538Z,28.82
2018-08-30T16:53:15.504Z,28.64
2018-08-30T16:55:44.155Z,28.55
2018-08-30T16:58:13.129Z,28.74
2018-08-30T17:00:42.652Z,28.54
2018-08-30T17:03:11.639Z,28.45
2018-08-30T17:05:40.493Z,28.45
2018-08-30T17:08:09.949Z,28.40
2018-08-30T17:10:38.750Z,28.43
2018-08-30T17:13:07.659Z,28.30
2018-08-30T17:15:37.198Z,28.07
2018-08-30T17:18:06.093Z,28.07
2018-08-30T17:20:43.524Z,27.98
2018-08-30T17:23:12.249Z,27.91
2018-08-30T17:25:41.839Z,27.86
2018-08-30T17:28:10.604Z,27.66
2018-08-30T17:30:39.583Z,27.51
2018-08-30T17:33:08.608Z,27.46
2018-08-30T17:35:37.462Z,27.33
2018-08-30T17:38:07.604Z,27.21
2018-08-30T17:40:36.543Z,27.33
2018-08-30T17:43:05.435Z,27.32
2018-08-30T17:45:34.736Z,27.12
2018-08-30T17:48:04.279Z,27.06
2018-08-30T17:50:33.500Z,26.88
2018-08-30T17:53:02.557Z,26.79
2018-08-30T17:55:33.381Z,26.82
2018-08-30T17:58:02.462Z,26.62
2018-08-30T18:00:31.313Z,26.53
2018-08-30T18:03:00.694Z,26.47
2018-08-30T18:05:29.677Z,26.46
2018-08-30T18:07:58.490Z,26.36
2018-08-30T18:10:27.333Z,26.29
2018-08-30T18:12:56.171Z,26.19
2018-08-30T18:15:26.191Z,26.26
2018-08-30T18:17:55.014Z,26.14
2018-08-30T18:20:24.375Z,26.08
2018-08-30T18:22:53.017Z,25.95
2018-08-30T18:25:22.846Z,25.79
2018-08-30T18:27:52.347Z,25.59
2018-08-30T18:30:21.358Z,25.40
2018-08-30T18:32:50.513Z,25.29
2018-08-30T18:35:19.416Z,25.18
2018-08-30T18:37:50.193Z,25.09
2018-08-30T18:40:19.241Z,24.96
2018-08-30T18:42:48.452Z,24.85
2018-08-30T18:45:17.291Z,24.96
2018-08-30T18:47:46.408Z,25.04
2018-08-30T18:50:16.151Z,24.91
2018-08-30T18:52:44.976Z,24.83
2018-08-30T18:55:13.930Z,24.72
2018-08-30T18:57:42.694Z,24.59
2018-08-30T19:00:11.614Z,24.53
2018-08-30T19:02:41.315Z,24.69
2018-08-30T19:05:10.156Z,24.58
2018-08-30T19:07:39.012Z,24.55
2018-08-30T19:10:07.953Z,24.57
2018-08-30T19:12:36.857Z,24.44
2018-08-30T19:15:11.557Z,24.37
2018-08-30T19:17:47.193Z,24.28
2018-08-30T19:20:16.204Z,24.13
2018-08-30T19:22:46.321Z,23.96
2018-08-30T19:25:19.899Z,23.90
2018-08-30T19:27:49.270Z,23.91
2018-08-30T19:30:23.541Z,24.03
2018-08-30T19:32:52.267Z,24.02
2018-08-30T19:35:27.257Z,24.01
2018-08-30T19:37:56.094Z,23.97
2018-08-30T19:40:30.597Z,23.92
2018-08-30T19:42:59.917Z,23.88
2018-08-30T19:45:30.132Z,23.90
2018-08-30T19:47:58.982Z,23.90
2018-08-30T19:50:28.490Z,23.99
2018-08-30T19:52:57.522Z,24.11
2018-08-30T19:55:26.354Z,24.11
2018-08-30T19:57:55.120Z,23.95
2018-08-30T20:00:24.147Z,23.79
2018-08-30T20:02:53.687Z,23.58
2018-08-30T20:05:24.824Z,23.47
2018-08-30T20:07:53.904Z,23.38
2018-08-30T20:10:23.328Z,23.27
2018-08-30T20:12:52.167Z,23.24
2018-08-30T20:15:21.115Z,23.25
2018-08-30T20:17:49.946Z,23.21
2018-08-30T20:20:18.822Z,23.11
2018-08-30T20:22:47.751Z,23.00
2018-08-30T20:25:17.293Z,22.96
2018-08-30T20:27:46.299Z,23.09
2018-08-30T20:30:15.079Z,23.00
2018-08-30T20:32:43.959Z,23.07
2018-08-30T20:35:13.099Z,23.17
2018-08-30T20:37:41.929Z,23.28
2018-08-30T20:40:10.841Z,23.30
2018-08-30T20:42:40.863Z,23.26
2018-08-30T20:45:11.319Z,23.24
2018-08-30T20:47:41.003Z,23.24
2018-08-30T20:50:09.966Z,23.19
2018-08-30T20:52:39.066Z,23.10
2018-08-30T20:55:08.843Z,23.05
2018-08-30T20:57:37.683Z,23.04
2018-08-30T21:00:07.440Z,23.06
2018-08-30T21:02:36.804Z,23.08
2018-08-30T21:05:05.551Z,23.17
2018-08-30T21:07:34.263Z,23.20
2018-08-30T21:10:03.749Z,23.15
2018-08-30T21:12:32.800Z,22.80
2018-08-30T21:15:01.609Z,22.52
2018-08-30T21:17:31.218Z,22.26
2018-08-30T21:20:00.025Z,22.19
2018-08-30T21:22:28.797Z,22.04
2018-08-30T21:24:57.532Z,21.95
2018-08-30T21:27:26.244Z,22.01
2018-08-30T21:29:54.913Z,22.13
2018-08-30T21:32:24.400Z,22.30
2018-08-30T21:34:54.289Z,22.44
2018-08-30T21:37:23.054Z,22.11
2018-08-30T21:39:51.751Z,21.79
2018-08-30T21:42:20.381Z,21.45
2018-08-30T21:44:49.034Z,21.23
2018-08-30T21:47:17.672Z,21.25
2018-08-30T21:49:46.361Z,21.41
2018-08-30T21:52:15.949Z,21.69
2018-08-30T21:54:45.306Z,21.85
2018-08-30T21:57:14.134Z,21.93
2018-08-30T21:59:43.416Z,21.66
2018-08-30T22:02:12.437Z,21.40
2018-08-30T22:04:41.599Z,21.14
2018-08-30T22:07:10.363Z,21.02
2018-08-30T22:09:39.374Z,20.92
2018-08-30T22:12:08.136Z,20.95
2018-08-30T22:14:36.799Z,20.83
2018-08-30T22:17:05.682Z,20.73
2018-08-30T22:19:34.294Z,20.63
2018-08-30T22:22:36.395Z,20.51
2018-08-30T22:25:05.372Z,20.44
2018-08-30T22:27:34.246Z,20.50
2018-08-30T22:30:04.652Z,20.57
2018-08-30T22:32:33.425Z,20.42
2018-08-30T22:35:02.145Z,20.34
2018-08-30T22:37:30.898Z,20.28
2018-08-30T22:39:59.538Z,20.29
2018-08-30T22:42:28.138Z,20.34
2018-08-30T22:44:56.796Z,20.31
2018-08-30T22:47:25.851Z,20.31
2018-08-30T22:49:54.608Z,20.45
2018-08-30T22:52:23.332Z,20.62
2018-08-30T22:54:52.156Z,20.51
2018-08-30T22:57:20.894Z,20.47
2018-08-30T22:59:49.571Z,20.46
2018-08-30T23:02:18.265Z,20.40
2018-08-30T23:04:47.004Z,20.28
2018-08-30T23:07:15.687Z,20.18
2018-08-30T23:09:44.283Z,20.09
2018-08-30T23:12:12.978Z,20.04
2018-08-30T23:14:41.650Z,19.96
2018-08-30T23:17:10.394Z,19.92
2018-08-30T23:19:39.167Z,19.85
2018-08-30T23:22:07.817Z,19.86
2018-08-30T23:24:36.493Z,19.84
2018-08-30T23:27:05.312Z,19.88
2018-08-30T23:29:34.176Z,19.98
2018-08-30T23:32:03.075Z,19.90
2018-08-30T23:34:31.821Z,19.88
2018-08-30T23:37:00.545Z,19.90
2018-08-30T23:39:29.216Z,19.97
2018-08-30T23:41:57.853Z,19.92
2018-08-30T23:44:26.498Z,19.89
2018-08-30T23:46:55.145Z,20.02
2018-08-30T23:49:23.776Z,20.15
2018-08-30T23:51:52.486Z,19.97
2018-08-30T23:54:21.111Z,19.84
2018-08-30T23:56:49.702Z,19.80
2018-08-30T23:59:35.247Z,19.77
